Time;durP1;ratioP1;P1;durP2;ratioP2;P2;SDS_P1;SDS_P2;PMS_P1;PMS_P2;Temp;Humidity;BMP_temperature;BMP_pressure;BME280_temperature;BME280_humidity;BME280_pressure;Samples;Min_cycle;Max_cycle;Signal;HPM_P1;HPM_P2
2022/07/22 00:01:46;;;;;;;4.38;1.20;;;17.70;99.90;;;;;;5070457;28;20049;-66
2022/07/22 00:04:12;;;;;;;4.20;1.42;;;17.70;99.90;;;;;;5054695;28;20047;-66
2022/07/22 00:06:37;;;;;;;5.55;1.20;;;17.70;99.90;;;;;;5067782;28;20387;-66
2022/07/22 00:09:03;;;;;;;3.50;1.17;;;17.70;99.90;;;;;;5073565;28;20082;-66
2022/07/22 00:11:29;;;;;;;3.72;1.10;;;17.70;99.90;;;;;;5072342;28;20051;-66
2022/07/22 00:13:55;;;;;;;3.00;1.05;;;17.70;99.90;;;;;;5076876;28;20024;-67
2022/07/22 00:16:20;;;;;;;3.08;1.00;;;17.70;99.90;;;;;;5073704;28;20023;-66
2022/07/22 00:18:46;;;;;;;3.08;1.08;;;17.70;99.90;;;;;;5074152;28;20029;-66
2022/07/22 00:21:11;;;;;;;4.35;1.15;;;17.60;99.90;;;;;;5072406;28;20032;-66
2022/07/22 00:23:37;;;;;;;3.55;1.30;;;17.60;99.90;;;;;;5074023;28;20020;-66
2022/07/22 00:26:03;;;;;;;3.80;1.10;;;17.60;99.90;;;;;;5072841;28;20029;-66
2022/07/22 00:28:28;;;;;;;3.65;1.50;;;17.60;99.90;;;;;;5061312;28;20036;-66
2022/07/22 00:30:54;;;;;;;4.55;1.38;;;17.60;99.90;;;;;;5073080;28;20012;-66
2022/07/22 00:33:19;;;;;;;4.82;1.52;;;17.60;99.90;;;;;;5073586;28;20051;-66
2022/07/22 00:35:45;;;;;;;4.03;1.58;;;17.60;99.90;;;;;;5073700;28;20059;-66
2022/07/22 00:38:10;;;;;;;3.45;1.42;;;17.60;99.90;;;;;;5073538;28;20050;-66
2022/07/22 00:40:36;;;;;;;3.38;1.38;;;17.60;99.90;;;;;;5066307;28;20017;-66
2022/07/22 00:43:02;;;;;;;7.05;1.70;;;17.60;99.90;;;;;;5066869;28;20036;-67
2022/07/22 00:45:27;;;;;;;4.93;1.48;;;17.60;99.90;;;;;;5054129;28;20416;-66
2022/07/22 00:47:53;;;;;;;5.47;1.52;;;17.60;99.90;;;;;;5054187;28;20400;-66
2022/07/22 00:50:19;;;;;;;4.13;1.67;;;17.50;99.90;;;;;;5069519;28;20053;-66
2022/07/22 00:52:45;;;;;;;4.07;1.98;;;17.60;99.90;;;;;;5054265;28;20111;-66
2022/07/22 00:55:11;;;;;;;5.90;2.17;;;17.60;99.90;;;;;;5069040;28;20120;-66
2022/07/22 00:57:37;;;;;;;6.18;1.50;;;17.60;99.90;;;;;;5054021;28;20068;-66
2022/07/22 01:00:07;;;;;;;4.97;1.60;;;17.50;99.90;;;;;;5053909;28;20079;-66
2022/07/22 01:02:33;;;;;;;3.97;1.25;;;17.50;99.90;;;;;;5054206;28;20025;-66
2022/07/22 01:04:59;;;;;;;3.13;1.23;;;17.50;99.90;;;;;;5069479;28;20055;-66
2022/07/22 01:07:24;;;;;;;3.20;1.60;;;17.50;99.90;;;;;;5069502;28;20381;-66
2022/07/22 01:09:50;;;;;;;3.08;1.48;;;17.50;99.90;;;;;;5069800;28;20024;-66
2022/07/22 01:12:15;;;;;;;2.13;1.20;;;17.50;99.90;;;;;;5067410;28;20400;-66
2022/07/22 01:14:41;;;;;;;4.97;1.42;;;17.50;99.90;;;;;;5070973;28;20021;-66
2022/07/22 01:17:07;;;;;;;3.08;1.13;;;17.50;99.90;;;;;;5068652;28;20388;-66
2022/07/22 01:19:34;;;;;;;3.17;1.00;;;17.50;99.90;;;;;;5073145;28;20029;-66
2022/07/22 01:21:59;;;;;;;3.55;1.02;;;17.50;99.90;;;;;;5068199;28;20020;-66
2022/07/22 01:24:25;;;;;;;2.83;1.30;;;17.50;99.90;;;;;;5072756;28;20499;-66
2022/07/22 01:26:50;;;;;;;4.95;1.20;;;17.50;99.90;;;;;;5070810;28;20024;-66
2022/07/22 01:29:16;;;;;;;5.97;1.13;;;17.60;99.90;;;;;;5077105;28;20514;-66
2022/07/22 01:31:41;;;;;;;3.90;0.93;;;17.60;99.90;;;;;;5065449;28;20032;-66
2022/07/22 01:34:07;;;;;;;3.92;0.90;;;17.50;99.90;;;;;;5053632;28;20025;-66
2022/07/22 01:36:32;;;;;;;7.45;1.15;;;17.50;99.90;;;;;;5066383;28;20370;-66
2022/07/22 01:38:58;;;;;;;4.55;1.20;;;17.50;99.90;;;;;;5072914;28;20025;-66
2022/07/22 01:41:23;;;;;;;3.08;1.20;;;17.50;99.90;;;;;;5076831;28;20024;-66
2022/07/22 01:43:49;;;;;;;3.88;1.00;;;17.50;99.90;;;;;;5060220;28;20029;-66
2022/07/22 01:46:16;;;;;;;2.85;0.90;;;17.50;99.90;;;;;;5058597;28;20025;-66
2022/07/22 01:48:42;;;;;;;2.60;0.80;;;17.60;99.90;;;;;;5068435;28;20385;-66
2022/07/22 01:51:07;;;;;;;4.63;1.00;;;17.50;99.90;;;;;;5058867;28;20025;-66
2022/07/22 01:53:33;;;;;;;5.38;0.90;;;17.50;99.90;;;;;;5067720;28;20111;-66
2022/07/22 01:55:59;;;;;;;2.53;0.85;;;17.50;99.90;;;;;;5080675;28;20031;-66
2022/07/22 01:58:24;;;;;;;4.65;0.80;;;17.60;99.90;;;;;;5071598;28;20044;-66
2022/07/22 02:00:50;;;;;;;3.65;1.15;;;17.50;99.90;;;;;;5071051;28;20039;-66
2022/07/22 02:03:16;;;;;;;4.50;0.90;;;17.50;99.90;;;;;;5071888;28;20055;-66
2022/07/22 02:05:41;;;;;;;2.50;0.80;;;17.50;99.90;;;;;;5071284;28;20110;-66
2022/07/22 02:08:09;;;;;;;2.58;0.80;;;17.50;99.90;;;;;;5072165;28;20578;-66
2022/07/22 02:10:35;;;;;;;6.35;1.08;;;17.50;99.90;;;;;;5070820;28;20107;-66
2022/07/22 02:13:01;;;;;;;3.17;1.90;;;17.50;99.90;;;;;;5061281;28;20095;-66
2022/07/22 02:15:27;;;;;;;3.55;0.82;;;17.50;99.90;;;;;;5052480;28;20040;-66
2022/07/22 02:17:54;;;;;;;4.75;0.90;;;17.50;99.90;;;;;;5052902;28;20024;-66
2022/07/22 02:20:20;;;;;;;2.53;0.98;;;17.50;99.90;;;;;;5065750;28;20021;-66
2022/07/22 02:22:46;;;;;;;4.20;1.15;;;17.50;99.90;;;;;;5052581;28;20120;-66
2022/07/22 02:25:12;;;;;;;4.35;1.10;;;17.50;99.90;;;;;;5052856;28;20113;-66
2022/07/22 02:27:38;;;;;;;1.88;0.68;;;17.50;99.90;;;;;;5053016;28;20025;-66
2022/07/22 02:30:05;;;;;;;3.30;0.85;;;17.50;99.90;;;;;;5053357;28;20123;-66
2022/07/22 02:32:31;;;;;;;2.50;0.88;;;17.50;99.90;;;;;;5053432;28;20029;-66
2022/07/22 02:34:56;;;;;;;2.70;1.00;;;17.50;99.90;;;;;;5057583;28;20059;-66
2022/07/22 02:37:22;;;;;;;2.60;0.90;;;17.50;99.90;;;;;;5057188;28;20029;-66
2022/07/22 02:39:47;;;;;;;3.00;0.88;;;17.50;99.90;;;;;;5071493;28;20496;-66
2022/07/22 02:42:13;;;;;;;2.67;0.90;;;17.40;99.90;;;;;;5057029;28;20104;-66
2022/07/22 02:44:39;;;;;;;3.83;0.88;;;17.40;99.80;;;;;;5077176;28;20429;-66
2022/07/22 02:47:04;;;;;;;3.83;0.80;;;17.40;99.80;;;;;;5080152;28;20032;-66
2022/07/22 02:49:30;;;;;;;2.67;0.73;;;17.40;99.80;;;;;;5076313;28;20024;-65
2022/07/22 02:51:55;;;;;;;2.78;0.80;;;17.40;99.80;;;;;;5075534;28;20379;-66
2022/07/22 02:54:21;;;;;;;4.50;0.85;;;17.40;99.80;;;;;;5075886;28;20020;-65
2022/07/22 02:56:46;;;;;;;5.18;0.77;;;17.40;99.70;;;;;;5075337;28;20487;-66
2022/07/22 02:59:12;;;;;;;3.38;1.00;;;17.40;99.80;;;;;;5074384;28;20082;-66
2022/07/22 03:01:37;;;;;;;3.22;0.80;;;17.40;99.80;;;;;;5075449;28;20074;-65
2022/07/22 03:04:03;;;;;;;4.63;1.00;;;17.40;99.80;;;;;;5074675;28;20109;-66
2022/07/22 03:06:28;;;;;;;4.18;1.10;;;17.40;99.70;;;;;;5060610;28;20028;-65
2022/07/22 03:08:54;;;;;;;2.03;0.80;;;17.40;99.70;;;;;;5075042;28;20024;-65
2022/07/22 03:11:20;;;;;;;2.88;0.77;;;17.30;99.70;;;;;;5073269;28;20028;-65
2022/07/22 03:13:45;;;;;;;2.55;1.05;;;17.30;99.70;;;;;;5075180;28;20066;-66
2022/07/22 03:16:11;;;;;;;2.33;0.80;;;17.30;99.70;;;;;;5074759;28;20555;-65
2022/07/22 03:18:36;;;;;;;2.60;0.80;;;17.30;99.80;;;;;;5074088;28;20030;-66
2022/07/22 03:21:02;;;;;;;2.28;0.95;;;17.30;99.80;;;;;;5074683;28;20032;-66
2022/07/22 03:23:28;;;;;;;4.07;0.98;;;17.30;99.80;;;;;;5060662;28;20071;-66
2022/07/22 03:25:56;;;;;;;2.00;0.73;;;17.30;99.80;;;;;;5070854;28;20495;-65
2022/07/22 03:28:22;;;;;;;2.40;0.60;;;17.30;99.80;;;;;;5055350;28;20055;-66
2022/07/22 03:30:47;;;;;;;2.67;0.63;;;17.30;99.80;;;;;;5076362;28;20053;-65
2022/07/22 03:33:13;;;;;;;3.20;0.70;;;17.30;99.90;;;;;;5083903;28;20547;-65
2022/07/22 03:35:38;;;;;;;1.98;0.70;;;17.30;99.90;;;;;;5055212;28;20025;-66
2022/07/22 03:38:06;;;;;;;6.30;0.85;;;17.30;99.90;;;;;;5070684;28;20199;-66
2022/07/22 03:40:32;;;;;;;1.75;0.65;;;17.30;99.90;;;;;;5070819;28;20036;-65
2022/07/22 03:42:57;;;;;;;1.95;0.80;;;17.30;99.90;;;;;;5055288;28;20058;-66
2022/07/22 03:45:23;;;;;;;2.72;0.82;;;17.30;99.90;;;;;;5062794;28;20032;-66
2022/07/22 03:47:48;;;;;;;1.83;0.85;;;17.30;99.90;;;;;;5061215;28;20028;-66
2022/07/22 03:50:14;;;;;;;2.58;0.73;;;17.30;99.90;;;;;;5064676;28;20033;-66
2022/07/22 03:52:39;;;;;;;2.28;0.85;;;17.30;99.90;;;;;;5083620;28;20074;-65
2022/07/22 03:55:06;;;;;;;2.47;0.70;;;17.30;99.90;;;;;;5065103;28;20017;-65
2022/07/22 03:57:32;;;;;;;1.20;0.65;;;17.30;99.90;;;;;;5058986;28;20440;-65
2022/07/22 03:59:57;;;;;;;2.65;0.70;;;17.30;99.90;;;;;;5054513;28;20057;-65
2022/07/22 04:02:23;;;;;;;1.33;0.70;;;17.30;99.90;;;;;;5068618;28;20108;-65
2022/07/22 04:04:48;;;;;;;2.15;0.80;;;17.30;99.90;;;;;;5072933;28;20078;-65
2022/07/22 04:07:14;;;;;;;1.85;0.70;;;17.30;99.90;;;;;;5073400;28;20029;-66
2022/07/22 04:09:39;;;;;;;2.15;0.70;;;17.30;99.90;;;;;;5072254;28;20413;-65
2022/07/22 04:12:05;;;;;;;1.30;0.52;;;17.30;99.80;;;;;;5072461;28;20074;-65
2022/07/22 04:14:30;;;;;;;2.25;0.60;;;17.30;99.80;;;;;;5065919;28;20017;-66
2022/07/22 04:16:56;;;;;;;2.22;0.70;;;17.30;99.70;;;;;;5064816;28;20028;-66
2022/07/22 04:19:21;;;;;;;2.42;0.80;;;17.30;99.70;;;;;;5060098;28;20059;-66
2022/07/22 04:21:47;;;;;;;2.03;0.85;;;17.30;99.70;;;;;;5064745;28;20469;-65
2022/07/22 04:24:12;;;;;;;3.47;0.80;;;17.30;99.60;;;;;;5060794;28;20435;-65
2022/07/22 04:26:38;;;;;;;2.05;0.60;;;17.30;99.60;;;;;;5064473;28;20464;-65
2022/07/22 04:29:05;;;;;;;3.70;0.70;;;17.30;99.60;;;;;;5060287;28;20477;-66
2022/07/22 04:31:31;;;;;;;2.25;0.60;;;17.30;99.60;;;;;;5064195;28;20013;-66
2022/07/22 04:33:58;;;;;;;1.63;0.55;;;17.40;99.60;;;;;;5076374;28;20130;-65
2022/07/22 04:36:23;;;;;;;3.03;0.75;;;17.40;99.60;;;;;;5063696;28;20492;-66
2022/07/22 04:38:49;;;;;;;1.55;0.55;;;17.40;99.60;;;;;;5061404;28;20049;-66
2022/07/22 04:41:15;;;;;;;1.70;0.70;;;17.40;99.50;;;;;;5063241;28;20021;-65
2022/07/22 04:43:41;;;;;;;1.30;0.80;;;17.30;99.50;;;;;;5061263;28;20059;-65
2022/07/22 04:46:11;;;;;;;3.08;0.77;;;17.40;99.50;;;;;;5077116;28;20028;-65
2022/07/22 04:48:36;;;;;;;1.25;0.70;;;17.40;99.50;;;;;;5077488;28;20032;-65
2022/07/22 04:51:03;;;;;;;3.13;0.82;;;17.40;99.50;;;;;;5063290;28;20028;-65
2022/07/22 04:53:28;;;;;;;2.35;0.80;;;17.40;99.50;;;;;;5062732;28;20418;-65
2022/07/22 04:55:54;;;;;;;1.63;1.00;;;17.40;99.50;;;;;;5070566;28;20503;-65
2022/07/22 04:58:20;;;;;;;1.38;0.90;;;17.50;99.50;;;;;;5073258;28;20090;-65
2022/07/22 05:00:46;;;;;;;3.53;1.00;;;17.50;99.50;;;;;;5073071;28;20395;-65
2022/07/22 05:03:12;;;;;;;2.63;0.88;;;17.40;99.50;;;;;;5065371;28;20025;-65
2022/07/22 05:05:37;;;;;;;3.08;0.90;;;17.50;99.50;;;;;;5068775;28;20036;-65
2022/07/22 05:08:03;;;;;;;2.28;1.13;;;17.50;99.50;;;;;;5060847;28;20033;-65
2022/07/22 05:10:29;;;;;;;1.55;0.80;;;17.50;99.50;;;;;;5053472;28;20025;-66
2022/07/22 05:12:54;;;;;;;2.70;0.95;;;17.50;99.60;;;;;;5061712;28;20084;-66
2022/07/22 05:15:20;;;;;;;3.05;1.15;;;17.60;99.60;;;;;;5058903;28;20023;-66
2022/07/22 05:17:45;;;;;;;2.45;0.77;;;17.60;99.70;;;;;;5072897;28;20028;-66
2022/07/22 05:20:11;;;;;;;2.00;0.90;;;17.60;99.70;;;;;;5069744;28;20484;-66
2022/07/22 05:22:37;;;;;;;2.78;1.05;;;17.70;99.70;;;;;;5069774;28;20040;-65
2022/07/22 05:25:03;;;;;;;3.40;1.38;;;17.70;99.70;;;;;;5071255;28;20473;-66
2022/07/22 05:27:28;;;;;;;2.63;1.27;;;17.70;99.70;;;;;;5070901;28;20506;-65
2022/07/22 05:30:03;;;;;;;4.10;1.20;;;17.70;99.70;;;;;;5068631;28;20090;-66
2022/07/22 05:32:28;;;;;;;2.85;1.10;;;17.70;99.70;;;;;;5069801;28;20028;-66
2022/07/22 05:34:54;;;;;;;2.92;1.20;;;17.80;99.70;;;;;;5068528;28;20380;-66
2022/07/22 05:37:20;;;;;;;2.83;1.30;;;17.80;99.70;;;;;;5070579;28;20512;-65
2022/07/22 05:39:45;;;;;;;3.22;1.27;;;17.80;99.70;;;;;;5068106;28;20029;-66
2022/07/22 05:42:11;;;;;;;3.67;1.08;;;17.80;99.60;;;;;;5070053;28;20021;-66
2022/07/22 05:44:40;;;;;;;2.65;1.10;;;17.90;99.60;;;;;;5069337;28;20028;-65
2022/07/22 05:47:05;;;;;;;2.65;1.05;;;17.90;99.50;;;;;;5067923;28;20024;-66
2022/07/22 05:49:31;;;;;;;5.70;1.23;;;17.90;99.50;;;;;;5068223;28;20028;-66
2022/07/22 05:52:00;;;;;;;2.35;1.05;;;17.90;99.50;;;;;;5068593;28;20033;-66
2022/07/22 05:54:25;;;;;;;3.70;1.20;;;18.00;99.50;;;;;;5066981;28;20035;-65
2022/07/22 05:56:51;;;;;;;2.35;0.93;;;18.00;99.50;;;;;;5066070;28;20254;-66
2022/07/22 05:59:17;;;;;;;3.78;1.30;;;18.10;99.40;;;;;;5067508;28;20424;-65
2022/07/22 06:01:42;;;;;;;3.30;1.08;;;18.10;99.30;;;;;;5067412;28;20130;-65
2022/07/22 06:04:08;;;;;;;3.80;1.40;;;18.10;99.30;;;;;;5064758;28;20016;-65
2022/07/22 06:06:33;;;;;;;3.20;1.10;;;18.10;99.30;;;;;;5066816;28;20134;-66
2022/07/22 06:08:59;;;;;;;3.05;1.00;;;18.10;99.20;;;;;;5067773;28;20024;-66
2022/07/22 06:11:24;;;;;;;4.65;1.00;;;18.20;99.20;;;;;;5066303;28;20420;-66
2022/07/22 06:13:50;;;;;;;1.70;0.82;;;18.20;99.20;;;;;;5066466;28;20044;-65
2022/07/22 06:16:15;;;;;;;2.58;0.70;;;18.30;99.10;;;;;;5063117;28;20418;-65
2022/07/22 06:18:41;;;;;;;2.17;0.80;;;18.30;99.10;;;;;;5067334;28;20017;-66
2022/07/22 06:21:07;;;;;;;2.22;0.70;;;18.40;99.00;;;;;;5063242;28;20032;-66
2022/07/22 06:23:33;;;;;;;2.35;0.73;;;18.40;98.90;;;;;;5062668;28;20146;-66
2022/07/22 06:25:59;;;;;;;3.97;0.80;;;18.50;98.70;;;;;;5079094;28;20512;-66
2022/07/22 06:28:24;;;;;;;2.47;0.52;;;18.50;98.50;;;;;;5063367;28;20028;-66
2022/07/22 06:30:50;;;;;;;4.40;0.50;;;18.60;98.20;;;;;;5065865;28;20366;-65
2022/07/22 06:33:15;;;;;;;1.98;0.50;;;18.70;98.00;;;;;;5066594;28;20407;-66
2022/07/22 06:35:41;;;;;;;2.63;0.95;;;18.70;97.80;;;;;;5064817;28;20021;-66
2022/07/22 06:38:07;;;;;;;1.42;0.45;;;18.80;97.70;;;;;;5065916;28;20028;-66
2022/07/22 06:40:34;;;;;;;2.83;0.70;;;18.80;97.40;;;;;;5059287;28;20477;-66
2022/07/22 06:42:59;;;;;;;4.78;0.68;;;18.80;97.20;;;;;;5068740;28;20067;-66
2022/07/22 06:45:25;;;;;;;2.03;0.50;;;18.80;97.00;;;;;;5079541;28;20052;-66
2022/07/22 06:47:50;;;;;;;1.33;0.50;;;18.90;96.90;;;;;;5054487;28;20021;-66
2022/07/22 06:50:16;;;;;;;2.75;0.70;;;18.90;96.70;;;;;;5051640;28;20040;-66
2022/07/22 06:52:43;;;;;;;2.42;0.80;;;18.90;96.50;;;;;;5051846;28;20025;-66
2022/07/22 06:55:09;;;;;;;2.35;0.50;;;19.00;96.40;;;;;;5080255;28;20020;-65
2022/07/22 06:57:35;;;;;;;1.77;0.85;;;19.00;96.10;;;;;;5059753;28;20032;-65
2022/07/22 07:00:00;;;;;;;3.70;0.75;;;19.10;96.10;;;;;;5060868;28;20041;-66
2022/07/22 07:02:26;;;;;;;2.55;0.77;;;19.10;95.90;;;;;;5054436;28;20036;-65
2022/07/22 07:04:52;;;;;;;1.95;0.77;;;19.10;95.80;;;;;;5053387;28;20051;-65
2022/07/22 07:07:17;;;;;;;3.13;0.80;;;19.20;95.90;;;;;;5068459;28;20107;-65
2022/07/22 07:09:42;;;;;;;2.13;0.80;;;19.30;95.80;;;;;;5056673;28;20481;-65
2022/07/22 07:12:08;;;;;;;2.67;0.70;;;19.30;95.70;;;;;;5074371;28;20021;-65
2022/07/22 07:14:34;;;;;;;3.17;0.90;;;19.30;95.50;;;;;;5056556;28;20100;-65
2022/07/22 07:16:59;;;;;;;2.72;1.55;;;19.40;95.40;;;;;;5061063;28;20035;-65
2022/07/22 07:19:25;;;;;;;4.57;0.60;;;19.50;95.20;;;;;;5058442;28;20033;-66
2022/07/22 07:21:50;;;;;;;2.22;0.60;;;19.50;95.10;;;;;;5057796;28;20040;-65
2022/07/22 07:24:16;;;;;;;4.00;1.08;;;19.60;95.10;;;;;;5056745;28;20044;-65
2022/07/22 07:26:47;;;;;;;2.13;0.50;;;19.70;95.00;;;;;;5057717;28;20021;-66
2022/07/22 07:29:12;;;;;;;1.65;0.38;;;19.70;94.80;;;;;;5056799;28;20503;-66
2022/07/22 07:31:38;;;;;;;2.88;0.50;;;19.80;94.60;;;;;;5057974;28;20095;-66
2022/07/22 07:34:03;;;;;;;2.40;0.77;;;20.00;94.50;;;;;;5056502;28;20025;-66
2022/07/22 07:36:29;;;;;;;2.63;0.60;;;20.00;94.20;;;;;;5056473;28;20025;-66
2022/07/22 07:38:54;;;;;;;1.77;0.60;;;20.10;94.10;;;;;;5056587;28;20025;-65
2022/07/22 07:41:20;;;;;;;1.95;0.60;;;20.20;93.90;;;;;;5056699;28;20961;-66
2022/07/22 07:43:45;;;;;;;2.35;0.50;;;20.20;93.70;;;;;;5055974;28;20017;-65
2022/07/22 07:46:11;;;;;;;3.40;0.40;;;20.30;93.60;;;;;;5084736;28;20028;-66
2022/07/22 07:48:37;;;;;;;3.25;0.60;;;20.30;93.40;;;;;;5073408;28;20029;-65
2022/07/22 07:51:02;;;;;;;1.45;0.40;;;20.40;93.30;;;;;;5058205;28;20047;-65
2022/07/22 07:53:36;;;;;;;1.25;0.50;;;20.50;93.10;;;;;;5062954;28;20108;-65
2022/07/22 07:56:01;;;;;;;1.80;0.57;;;20.60;92.90;;;;;;5054471;28;20415;-66
2022/07/22 07:58:27;;;;;;;1.27;0.60;;;20.70;92.80;;;;;;5054505;28;20049;-65
2022/07/22 08:00:53;;;;;;;1.83;0.30;;;20.70;92.50;;;;;;5070048;28;20028;-66
2022/07/22 08:03:18;;;;;;;2.97;0.50;;;20.80;92.40;;;;;;5074265;28;20028;-65
2022/07/22 08:05:44;;;;;;;2.92;0.77;;;20.90;92.10;;;;;;5058634;28;20032;-66
2022/07/22 08:08:09;;;;;;;1.63;0.60;;;21.00;91.80;;;;;;5077326;28;20025;-65
2022/07/22 08:10:35;;;;;;;1.48;0.60;;;21.10;91.60;;;;;;5063029;28;20025;-66
2022/07/22 08:13:01;;;;;;;1.38;0.40;;;21.20;91.50;;;;;;5054033;28;20032;-65
2022/07/22 08:15:27;;;;;;;1.98;0.60;;;21.30;91.20;;;;;;5064250;28;20029;-66
2022/07/22 08:17:53;;;;;;;1.75;0.50;;;21.30;91.10;;;;;;5063524;28;20025;-65
2022/07/22 08:20:19;;;;;;;2.78;0.35;;;21.40;91.00;;;;;;5053728;28;20082;-66
2022/07/22 08:22:44;;;;;;;1.63;0.43;;;21.50;90.80;;;;;;5060219;28;20370;-65
2022/07/22 08:25:10;;;;;;;0.95;0.30;;;21.60;90.60;;;;;;5064532;28;20029;-66
2022/07/22 08:27:36;;;;;;;1.13;0.40;;;21.60;90.40;;;;;;5058582;28;20025;-66
2022/07/22 08:30:04;;;;;;;2.67;0.47;;;21.70;90.30;;;;;;5065884;28;20021;-66
2022/07/22 08:32:40;;;;;;;1.83;0.52;;;21.70;89.70;;;;;;5063960;28;20016;-66
2022/07/22 08:35:07;;;;;;;3.72;0.40;;;21.70;89.30;;;;;;5067757;28;20104;-65
2022/07/22 08:37:32;;;;;;;1.77;0.40;;;21.80;89.00;;;;;;5064533;28;20020;-66
2022/07/22 08:39:58;;;;;;;1.42;0.47;;;21.80;88.00;;;;;;5057291;28;20028;-65
2022/07/22 08:42:24;;;;;;;3.60;0.47;;;21.90;87.70;;;;;;5065591;28;20391;-65
2022/07/22 08:44:51;;;;;;;1.60;0.38;;;22.00;87.00;;;;;;5057823;28;20027;-66
2022/07/22 08:47:24;;;;;;;1.98;0.50;;;22.10;87.00;;;;;;5058018;28;20025;-65
2022/07/22 08:49:50;;;;;;;3.25;0.50;;;22.20;86.10;;;;;;5067922;28;20032;-66
2022/07/22 08:52:15;;;;;;;2.92;0.43;;;22.30;85.50;;;;;;5058946;28;20021;-66
2022/07/22 08:54:41;;;;;;;1.88;0.43;;;22.30;85.00;;;;;;5077582;28;20162;-66
2022/07/22 08:57:07;;;;;;;1.48;0.40;;;22.40;85.00;;;;;;5068568;28;20020;-65
2022/07/22 08:59:32;;;;;;;1.20;0.40;;;22.40;84.70;;;;;;5055140;28;20051;-66
2022/07/22 09:02:10;;;;;;;1.65;0.43;;;22.40;84.50;;;;;;5063888;28;20120;-66
2022/07/22 09:04:53;;;;;;;1.63;0.50;;;22.30;83.90;;;;;;5063646;28;20017;-66
2022/07/22 09:07:35;;;;;;;1.77;0.40;;;22.40;83.80;;;;;;5066347;28;20048;-66
2022/07/22 09:10:03;;;;;;;1.52;0.50;;;22.20;83.60;;;;;;5067655;28;20028;-66
2022/07/22 09:12:29;;;;;;;1.02;0.43;;;22.10;83.70;;;;;;5064625;28;20013;-66
2022/07/22 09:14:57;;;;;;;1.45;0.50;;;22.10;83.40;;;;;;5061063;28;20025;-66
2022/07/22 09:17:32;;;;;;;2.03;0.40;;;22.10;83.20;;;;;;5068597;28;20009;-66
2022/07/22 09:19:59;;;;;;;0.70;0.50;;;22.20;83.10;;;;;;5054496;28;20033;-65
2022/07/22 09:22:30;;;;;;;1.23;0.50;;;22.30;83.00;;;;;;5055363;28;20031;-66
2022/07/22 09:24:56;;;;;;;3.28;0.50;;;22.40;82.60;;;;;;5056124;28;20029;-66
2022/07/22 09:27:28;;;;;;;0.63;0.38;;;22.40;82.20;;;;;;5058480;28;20051;-66
2022/07/22 09:29:56;;;;;;;2.20;0.55;;;22.40;81.90;;;;;;5066265;28;20035;-66
2022/07/22 09:32:22;;;;;;;1.35;0.45;;;22.40;82.00;;;;;;5067313;28;20374;-66
2022/07/22 09:34:47;;;;;;;1.65;0.40;;;22.40;81.70;;;;;;5054904;28;20035;-66
2022/07/22 09:37:14;;;;;;;2.92;0.60;;;22.50;81.70;;;;;;5055063;28;20485;-66
2022/07/22 09:39:39;;;;;;;1.35;0.40;;;22.50;81.40;;;;;;5058141;28;20480;-66
2022/07/22 09:42:07;;;;;;;2.38;0.40;;;22.70;81.10;;;;;;5063465;28;20112;-66
2022/07/22 09:44:33;;;;;;;1.20;0.40;;;22.70;80.70;;;;;;5060799;28;20081;-66
2022/07/22 09:47:01;;;;;;;1.40;0.43;;;22.90;80.40;;;;;;5082230;28;20028;-66
2022/07/22 09:49:37;;;;;;;3.03;0.40;;;22.90;80.00;;;;;;5056757;28;20132;-66
2022/07/22 09:52:03;;;;;;;1.17;0.40;;;23.00;79.40;;;;;;5054009;28;20029;-66
2022/07/22 09:54:30;;;;;;;1.23;0.43;;;23.10;79.50;;;;;;5054547;28;20473;-66
2022/07/22 09:56:56;;;;;;;4.47;0.60;;;23.20;78.90;;;;;;5061748;28;20099;-66
2022/07/22 09:59:21;;;;;;;2.03;0.80;;;23.20;78.80;;;;;;5056434;28;20053;-66
2022/07/22 10:01:56;;;;;;;2.65;0.70;;;23.10;78.00;;;;;;5052928;28;20051;-66
2022/07/22 10:04:24;;;;;;;2.25;0.80;;;23.10;78.30;;;;;;5067514;28;20023;-66
2022/07/22 10:06:50;;;;;;;1.63;0.60;;;23.20;78.50;;;;;;5057843;28;20029;-66
2022/07/22 10:09:17;;;;;;;2.53;0.70;;;23.40;78.40;;;;;;5071850;28;20077;-66
2022/07/22 10:11:45;;;;;;;2.38;1.15;;;23.50;77.90;;;;;;5071259;28;20029;-66
2022/07/22 10:14:16;;;;;;;1.90;0.50;;;23.60;77.50;;;;;;5068063;28;20024;-66
2022/07/22 10:16:43;;;;;;;1.45;0.70;;;23.80;77.20;;;;;;5061657;28;20529;-66
2022/07/22 10:19:10;;;;;;;3.65;1.30;;;23.90;76.40;;;;;;5059662;28;20040;-66
2022/07/22 10:21:36;;;;;;;3.70;1.33;;;23.80;76.00;;;;;;5064738;28;20477;-66
2022/07/22 10:24:12;;;;;;;2.97;0.63;;;23.80;76.10;;;;;;5058287;28;20484;-66
2022/07/22 10:26:58;;;;;;;2.25;0.85;;;23.80;75.40;;;;;;5067597;28;20163;-66
2022/07/22 10:29:47;;;;;;;2.60;0.50;;;23.70;75.20;;;;;;5067869;28;20017;-66
2022/07/22 10:32:15;;;;;;;1.17;0.45;;;23.60;75.00;;;;;;5069811;28;20017;-66
2022/07/22 10:34:42;;;;;;;1.63;0.50;;;23.40;75.70;;;;;;5065575;28;20150;-66
2022/07/22 10:37:40;;;;;;;1.02;0.50;;;23.40;76.10;;;;;;5084096;28;20373;-66
2022/07/22 10:40:17;;;;;;;2.88;1.00;;;23.40;76.00;;;;;;5054305;28;20017;-66
2022/07/22 10:43:04;;;;;;;2.47;0.77;;;23.40;76.50;;;;;;5067447;28;20071;-66
2022/07/22 10:45:36;;;;;;;2.75;0.70;;;23.40;76.40;;;;;;5076724;28;20020;-66
2022/07/22 10:48:05;;;;;;;2.85;0.60;;;23.50;76.30;;;;;;5057697;28;20469;-66
2022/07/22 10:50:39;;;;;;;3.42;0.50;;;23.50;76.00;;;;;;5062743;28;20078;-66
2022/07/22 10:53:12;;;;;;;1.00;0.40;;;23.70;75.70;;;;;;5068764;28;20020;-66
2022/07/22 10:55:57;;;;;;;2.08;0.90;;;23.80;75.50;;;;;;5061755;28;20100;-66
2022/07/22 10:58:32;;;;;;;1.38;0.50;;;23.90;75.30;;;;;;5067017;28;20049;-66
2022/07/22 11:01:06;;;;;;;1.63;0.60;;;24.20;74.80;;;;;;5069766;28;20021;-66
2022/07/22 11:03:32;;;;;;;2.30;0.70;;;24.30;74.10;;;;;;5071223;28;20108;-66
2022/07/22 11:06:17;;;;;;;1.40;0.60;;;24.50;73.60;;;;;;5072804;28;20040;-66
2022/07/22 11:08:44;;;;;;;2.00;0.65;;;24.80;72.90;;;;;;5066064;28;20120;-66
2022/07/22 11:11:10;;;;;;;1.65;0.57;;;24.90;71.80;;;;;;5063082;28;20024;-66
2022/07/22 11:13:44;;;;;;;2.90;0.60;;;25.00;70.80;;;;;;5068902;28;20504;-66
2022/07/22 11:16:23;;;;;;;2.80;0.75;;;25.10;70.70;;;;;;5067818;28;20392;-66
2022/07/22 11:18:55;;;;;;;1.30;0.63;;;25.30;70.80;;;;;;5063479;28;20056;-66
2022/07/22 11:21:24;;;;;;;2.03;0.70;;;25.40;70.80;;;;;;5069262;28;20044;-66
2022/07/22 11:23:51;;;;;;;;;;;25.40;71.00;;;;;;5065961;28;20036;-66
2022/07/22 11:26:23;;;;;;;1.70;0.50;;;25.50;71.40;;;;;;5060128;28;19917;-66
2022/07/22 11:28:49;;;;;;;2.50;1.20;;;25.70;71.20;;;;;;5059188;28;20039;-66
2022/07/22 11:31:17;;;;;;;1.90;0.63;;;25.90;70.50;;;;;;5061391;28;20024;-66
2022/07/22 11:33:45;;;;;;;1.73;0.63;;;25.90;69.90;;;;;;5067252;28;20479;-66
2022/07/22 11:36:11;;;;;;;4.95;0.73;;;25.90;69.60;;;;;;5070967;28;20046;-66
2022/07/22 11:38:48;;;;;;;2.45;0.60;;;25.80;69.50;;;;;;5067330;28;20027;-66
2022/07/22 11:41:16;;;;;;;3.33;0.50;;;25.80;69.60;;;;;;5068788;28;20075;-66
2022/07/22 11:43:46;;;;;;;1.38;0.60;;;25.60;69.50;;;;;;5055891;28;20411;-66
2022/07/22 11:46:13;;;;;;;1.42;0.70;;;25.70;69.50;;;;;;5073211;28;20040;-66
2022/07/22 11:48:42;;;;;;;1.77;0.60;;;25.70;69.50;;;;;;5055546;28;20049;-66
2022/07/22 11:51:12;;;;;;;3.15;0.80;;;25.80;69.10;;;;;;5055362;28;20519;-66
2022/07/22 11:53:39;;;;;;;1.60;0.80;;;25.80;68.80;;;;;;5062948;28;20112;-66
2022/07/22 11:56:06;;;;;;;4.20;1.15;;;25.90;68.40;;;;;;5067113;28;20024;-66
2022/07/22 11:58:38;;;;;;;1.80;0.80;;;26.00;67.70;;;;;;5067573;28;20409;-66
2022/07/22 12:01:05;;;;;;;2.13;0.80;;;26.00;67.40;;;;;;5058570;28;20476;-66
2022/07/22 12:03:33;;;;;;;2.03;0.60;;;26.00;67.60;;;;;;5060524;28;20100;-66
2022/07/22 12:05:59;;;;;;;2.08;0.70;;;26.00;67.60;;;;;;5058878;28;20483;-66
2022/07/22 12:08:25;;;;;;;0.70;0.50;;;26.10;67.40;;;;;;5064623;28;20020;-66
2022/07/22 12:10:50;;;;;;;1.48;0.77;;;26.20;66.90;;;;;;5065129;28;20472;-66
2022/07/22 12:13:16;;;;;;;4.22;0.70;;;26.40;66.40;;;;;;5060730;28;20021;-66
2022/07/22 12:15:41;;;;;;;2.85;0.95;;;26.50;65.80;;;;;;5069547;28;20024;-66
2022/07/22 12:18:19;;;;;;;2.63;1.00;;;26.60;64.70;;;;;;5061979;28;20033;-66
2022/07/22 12:20:46;;;;;;;1.60;0.90;;;26.70;63.20;;;;;;5063443;28;20012;-66
2022/07/22 12:23:13;;;;;;;2.67;0.70;;;26.60;63.30;;;;;;5054828;28;20025;-66
2022/07/22 12:25:52;;;;;;;1.77;0.70;;;26.90;63.70;;;;;;5063833;28;20154;-66
2022/07/22 12:28:18;;;;;;;1.70;0.60;;;27.20;63.30;;;;;;5074684;28;20036;-66
2022/07/22 12:30:43;;;;;;;1.50;0.75;;;27.50;63.20;;;;;;5064365;28;20029;-66
2022/07/22 12:33:16;;;;;;;2.35;0.70;;;27.60;61.90;;;;;;5059340;28;20428;-67
2022/07/22 12:35:43;;;;;;;0.95;0.60;;;27.80;60.90;;;;;;5063018;28;20049;-66
2022/07/22 12:38:10;;;;;;;4.55;0.85;;;28.00;60.70;;;;;;5061267;28;20100;-66
2022/07/22 12:40:36;;;;;;;2.50;0.60;;;28.10;60.40;;;;;;5062892;28;20469;-66
2022/07/22 12:43:07;;;;;;;2.03;0.68;;;28.10;59.80;;;;;;5077486;28;20463;-66
2022/07/22 12:45:36;;;;;;;1.13;0.68;;;28.10;59.60;;;;;;5069903;28;20040;-66
2022/07/22 12:48:03;;;;;;;3.75;1.20;;;28.10;59.60;;;;;;5065632;28;20024;-66